Tuesday, December 18, 2018, 5:07 PM EST
Back to Local

KHUL, Houlton Int'l Airport

Location: Houlton, ME, United States Lat: 46.117
Local Time: 5:07 PM EST (22:07 GMT) Lon: -67.8
Time Zone: US/Eastern Elev: 492 ft

Show me the last for .
Show Decoded

2018-12-18 16:53 METAR KHUL 182153Z AUTO 31011G23KT 9SM OVC042 M05/M09 A2963 RMK AO2 SLP043
                 T10501094 TSNO =
2018-12-18 15:53 METAR KHUL 182053Z AUTO 31013G22KT 10SM OVC038 M06/M09 A2961 RMK AO2 PK WND
                 32028/2006 SLP033 60000 T10561094 53024 TSNO =
2018-12-18 14:53 METAR KHUL 181953Z AUTO 32015G25KT 6SM HZ OVC033 M06/M09 A2957 RMK AO2 PK WND
                 32028/1916 UPB12E32SNB32E37 SLP022 P0000 T10561094 TSNO =
2018-12-18 14:25 METAR KHUL 181925Z AUTO 33017G28KT 5SM UP OVC030 M06/M09 A2956 RMK AO2 PK WND
                 32028/1916 UPB12 P0000 T10561094 TSNO =
2018-12-18 13:53 METAR KHUL 181853Z AUTO 32014G30KT 5SM HZ OVC027 M06/M09 A2955 RMK AO2 PK WND
                 31030/1849 SNB19E43 SLP014 P0000 T10561094 TSNO =
2018-12-18 12:53 METAR KHUL 181753Z AUTO 33013G25KT 4SM HZ OVC027 M06/M10 A2953 RMK AO2 PK WND
                 34027/1734 SLP008 60001 T10561100 11056 21061 53006 TSNO =
2018-12-18 11:53 METAR KHUL 181653Z AUTO 32013G24KT 5SM HZ OVC025 M06/M09 A2952 RMK AO2 PK WND
                 32027/1641 SLP003 T10561094 TSNO =
2018-12-18 10:53 METAR KHUL 181553Z AUTO 32012G20KT 8SM OVC026 M06/M09 A2951 RMK AO2 PK WND
                 32029/1513 UPB10E32 SLP001 P0000 T10561094 TSNO =
2018-12-18 09:53 METAR KHUL 181453Z AUTO 33016G24KT 4SM HZ OVC024 M06/M09 A2951 RMK AO2 PK WND
                 30029/1427 UPE36 SLP002 P0000 60001 T10611094 51034 TSNO =
2018-12-18 08:53 METAR KHUL 181353Z AUTO 33016G28KT 4SM UP OVC022 M06/M09 A2949 RMK AO2 PK WND
                 34028/1351 UPE08B23 SLP994 P0000 T10611089 TSNO =
2018-12-18 08:08 METAR KHUL 181308Z AUTO 33012G21KT 3SM BR OVC021 M06/M08 A2947 RMK AO2 UPE08
                 P0000 T10611083 TSNO =
2018-12-18 07:53 METAR KHUL 181253Z AUTO 33017G28KT 2 1/2SM UP OVC021 M06/M08 A2946 RMK AO2 PK
                 WND 33028/1252 UPB46SNE46 SLP982 P0001 T10561083 TSNO =
2018-12-18 07:36 METAR KHUL 181236Z AUTO 34013G21KT 1 3/4SM -SN BR BKN019 OVC025 M06/M08 A2944
                 RMK AO2 P0000 T10561078 TSNO =
2018-12-18 07:25 METAR KHUL 181225Z AUTO 32013G24KT 2SM -SN BR BKN019 OVC023 M06/M08 A2943 RMK
                 AO2 P0000 T10561078 TSNO =
2018-12-18 06:53 METAR KHUL 181153Z AUTO 33014G24KT 3SM -SN BR BKN019 OVC046 M06/M07 A2941 RMK
                 AO2 PK WND 34026/1119 SLP967 P0000 60000 70029 T10561072 11022 21056 53023 TSNO
                 =
2018-12-18 06:42 METAR KHUL 181142Z AUTO 33014G23KT 3SM -SN BR SCT017 OVC046 M06/M07 A2941 RMK
                 AO2 PK WND 34026/1119 P0000 T10561072 TSNO =
2018-12-18 06:33 METAR KHUL 181133Z AUTO 33017G24KT 2 1/2SM -SN BR SCT019 OVC037 M06/M07 A2940
                 RMK AO2 PK WND 34026/1119 P0000 T10561072 TSNO =
2018-12-18 06:20 METAR KHUL 181120Z AUTO 33016G26KT 1 1/2SM -SN BR SCT017 OVC031 M05/M07 A2939
                 RMK AO2 PK WND 34026/1119 P0000 T10501072 TSNO =
2018-12-18 05:53 METAR KHUL 181053Z AUTO 33013G23KT 1 1/4SM -SN BR BKN016 OVC033 M05/M07 A2938
                 RMK AO2 SLP956 P0000 T10501067 TSNO =
2018-12-18 05:16 METAR KHUL 181016Z AUTO 32012G22KT 1 1/2SM -SN BR BKN016 OVC022 M04/M06 A2936
                 RMK AO2 P0000 T10441056 TSNO =
2018-12-18 05:06 METAR KHUL 181006Z AUTO 32011G20KT 1 1/4SM -SN BR BKN016 OVC022 M04/M06 A2935
                 RMK AO2 P0000 T10441056 TSNO =
2018-12-18 04:53 METAR KHUL 180953Z AUTO 33013KT 1 1/2SM -SN BR BKN016 OVC024 M04/M06 A2935 RMK
                 AO2 SLP944 P0000 T10391056 TSNO =
2018-12-18 04:51 METAR KHUL 180951Z AUTO 32011KT 1 1/2SM -SN BR BKN014 BKN019 OVC024 M04/M06
                 A2934 RMK AO2 P0000 TSNO =
2018-12-18 04:14 METAR KHUL 180914Z AUTO 33008KT 1SM -SN BR SCT008 BKN013 OVC018 M03/M04 A2933
                 RMK AO2 P0000 T10281039 TSNO =
2018-12-18 04:05 METAR KHUL 180905Z AUTO 34013G21KT 1SM -SN BR SCT010 OVC016 M03/M04 A2932 RMK
                 AO2 P0000 T10281039 TSNO =
2018-12-18 03:53 METAR KHUL 180853Z AUTO 33013G21KT 3/4SM -SN BR OVC012 M03/M03 A2932 RMK AO2
                 SLP935 P0000 60000 T10281033 53009 TSNO =
2018-12-18 03:41 METAR KHUL 180841Z AUTO 34011KT 3/4SM -SN BR VV012 M03/M03 A2931 RMK AO2 P0000
                 T10281033 TSNO =
2018-12-18 03:28 METAR KHUL 180828Z AUTO 34011KT 3/4SM -SN BR SCT009 OVC015 M02/M03 A2931 RMK AO2
                 P0000 T10221033 TSNO =
2018-12-18 03:17 METAR KHUL 180817Z AUTO 34013G21KT 3/4SM -SN BR BKN009 OVC015 M02/M03 A2931 RMK
                 AO2 P0000 T10221033 TSNO =
2018-12-18 02:53 METAR KHUL 180753Z AUTO 34010G19KT 1/2SM SN FZFG SCT009 OVC012 M03/M03 A2930 RMK
                 AO2 SLP929 P0000 T10281033 TSNO =
2018-12-18 02:42 METAR KHUL 180742Z AUTO 34010KT 3/4SM -SN BR SCT008 OVC014 M03/M03 A2930 RMK AO2
                 P0000 T10281033 TSNO =
2018-12-18 02:28 METAR KHUL 180728Z AUTO 35010KT 1SM -SN BR BKN010 OVC016 M03/M03 A2930 RMK AO2
                 P0000 T10281033 TSNO =
2018-12-18 02:15 METAR KHUL 180715Z AUTO 34012KT 3/4SM -SN BR BKN008 OVC014 M03/M03 A2930 RMK AO2
                 P0000 T10281033 TSNO =
2018-12-18 02:00 METAR KHUL 180700Z AUTO 34010KT 3/4SM -SN BR BKN010 OVC014 M03/M03 A2929 RMK AO2
                 P0000 T10281033 TSNO =
2018-12-18 01:53 METAR KHUL 180653Z AUTO 34012KT 3/4SM -SN BR SCT008 OVC016 M03/M03 A2929 RMK AO2
                 SLP925 P0000 T10281033 TSNO =
2018-12-18 01:50 METAR KHUL 180650Z AUTO 34010KT 3/4SM -SN BR SCT008 OVC018 M03/M03 A2929 RMK AO2
                 P0000 TSNO =
2018-12-18 01:40 METAR KHUL 180640Z AUTO 34010KT 3/4SM -SN BR SCT008 BKN014 OVC018 M03/M03 A2929
                 RMK AO2 P0000 T10281033 TSNO =
2018-12-18 01:36 METAR KHUL 180636Z AUTO 34008KT 3/4SM -SN BR SCT010 OVC018 M03/M03 A2929 RMK AO2
                 P0000 T10281033 TSNO =
2018-12-18 01:33 METAR KHUL 180633Z AUTO 35010KT 3/4SM -SN BR BKN010 BKN014 OVC021 M03/M03 A2929
                 RMK AO2 P0000 T10281033 TSNO =
2018-12-18 01:25 METAR KHUL 180625Z AUTO 34011KT 1 1/2SM -SN BR BKN012 OVC029 M03/M03 A2928 RMK
                 AO2 P0000 T10281033 TSNO =
2018-12-18 00:53 METAR KHUL 180553Z AUTO 34008KT 2SM -SN BR OVC010 M03/M03 A2928 RMK AO2 SLP922
                 P0000 60010 T10281033 11022 21028 56013 TSNO =
2018-12-18 00:36 METAR KHUL 180536Z AUTO 35007KT 1 3/4SM -SN BR OVC010 M03/M03 A2928 RMK AO2
                 P0000 T10281033 TSNO =
2018-12-18 00:03 METAR KHUL 180503Z AUTO 34008KT 1 1/2SM -SN BR BKN008 OVC036 M03/M03 A2928 RMK
                 AO2 P0000 T10281033 TSNO =
2018-12-17 23:53 METAR KHUL 180453Z AUTO 35009KT 2SM -SN BR BKN008 OVC036 M03/M03 A2928 RMK AO2
                 SLP923 P0000 T10281033 410111067 TSNO =
2018-12-17 23:49 METAR KHUL 180449Z AUTO 34009KT 2SM -SN BR BKN008 OVC036 M03/M03 A2928 RMK AO2
                 P0000 TSNO =
2018-12-17 23:46 METAR KHUL 180446Z AUTO 35007KT 1 1/2SM -SN BR SCT008 BKN011 OVC034 M03/M03
                 A2928 RMK AO2 P0000 T10281033 TSNO =
2018-12-17 23:34 METAR KHUL 180434Z AUTO 34009KT 1SM -SN BR BKN008 OVC024 M03/M03 A2929 RMK AO2
                 P0000 T10281033 TSNO =
2018-12-17 23:09 METAR KHUL 180409Z AUTO 34008KT 1/2SM SN FZFG BKN007 OVC011 M02/M03 A2930 RMK
                 AO2 P0000 T10221028 TSNO =
2018-12-17 23:03 METAR KHUL 180403Z AUTO 35008KT 1/2SM SN FZFG VV010 M02/M03 A2930 RMK AO2 P0000
                 T10221028 TSNO =
2018-12-17 22:53 METAR KHUL 180353Z AUTO 34008KT 1/2SM SN FZFG VV009 M02/M03 A2930 RMK AO2 SLP930
                 P0003 T10221028 TSNO =
2018-12-17 21:53 METAR KHUL 180253Z AUTO 34008KT 1/2SM SN FZFG BKN006 OVC010 M02/M03 A2932 RMK
                 AO2 SLP936 P0002 60007 T10221028 56019 TSNO =
2018-12-17 21:36 METAR KHUL 180236Z AUTO 35008KT 3/4SM -SN BR BKN006 OVC010 M02/M03 A2932 RMK AO2
                 P0001 T10221028 TSNO =
2018-12-17 21:18 METAR KHUL 180218Z AUTO 34006KT 1SM -SN BR OVC005 M02/M02 A2933 RMK AO2 P0001
                 T10221022 TSNO =
2018-12-17 20:53 METAR KHUL 180153Z AUTO 36006KT 1/2SM SN FZFG OVC007 M02/M02 A2934 RMK AO2
                 SLP941 P0003 T10221022 TSNO =
2018-12-17 19:53 METAR KHUL 180053Z AUTO 36006KT 1/4SM SN FZFG VV007 M02/M02 A2935 RMK AO2 SLP947
                 P0002 T10221022 TSNO =
2018-12-17 18:53 METAR KHUL 172353Z AUTO 01009KT 1/2SM SN FZFG VV008 M02/M03 A2938 RMK AO2 SLP955
                 P0002 60010 T10221028 11011 21022 58016 TSNO =
2018-12-17 17:53 METAR KHUL 172253Z AUTO 35005KT 1/2SM SN FZFG VV007 M02/M02 A2940 RMK AO2 SLP964
                 P0004 T10221022 TSNO =

Support USWX by starting your Amazon purchase here.